SBOSBO JTR / LGSR
Speedbird OnlineSpeedbird Online JTR / LGSR

Santorini Airport
08:36 11.8°C

Location Thira, Greece
Latitude: 36.399200439453125
Longitude: 25.479299545288086
Web Wikipedia
Altitude 39 Meter / 127 Feet
Distance 2,610 KM / 1,622 Miles
from London.
Time Zone UTC +2 hours (Europe/Athens)
Codes IATA: JTR
ICAO: LGSR
Currency £1 equals EUR 1.14
Runways
RunwayLength (m)Surface
152125Asphalt
16R0UNK
332125Asphalt
34L0UNK
Radio
TypeDescriptionFrequency
A/GRDO563.7
APPAPP118.05
TWRTWR118.05
Live ATC
METAR LGSR 290620Z 36008KT 9999 SCT020 12/10 Q1015
TAF TAF LGSR 290500Z 2906/3006 VRB05KT 9999 FEW018 SCT025 BECMG 2910/2912 01010KT PROB40 TEMPO 2906/3003 5000 RA FEW015 FEW018TCU BKN020 PROB30 TEMPO 2906/2924 5000 TSRA SCT010 FEW018CB BKN020
Weather As Of 29 Jan 2023 08:36
Description Light rain
Wind 15 km/h from North (360°)
Cloud Cover 40%
Precipitation Rain: none, Snow: none
Sunrise 07:22
Sunset 17:39



Support Speedbird Online

© 2017-2023 Speedbird Online